createdAt,value
2018-09-20T00:00:24.909Z,3.00
2018-09-20T00:02:53.528Z,3.37
2018-09-20T00:05:22.155Z,3.50
2018-09-20T00:07:50.731Z,3.47
2018-09-20T00:10:18.977Z,3.30
2018-09-20T00:12:47.576Z,3.30
2018-09-20T00:15:15.803Z,3.43
2018-09-20T00:17:44.475Z,3.63
2018-09-20T00:20:13.038Z,3.53
2018-09-20T00:22:41.616Z,3.53
2018-09-20T00:25:10.254Z,3.80
2018-09-20T00:27:38.507Z,3.37
2018-09-20T00:30:06.749Z,3.70
2018-09-20T00:32:35.393Z,3.70
2018-09-20T00:35:03.746Z,3.33
2018-09-20T00:37:32.111Z,3.67
2018-09-20T00:40:00.393Z,3.57
2018-09-20T00:42:28.605Z,2.90
2018-09-20T00:44:56.851Z,3.10
2018-09-20T00:47:25.518Z,2.90
2018-09-20T00:49:53.780Z,3.30
2018-09-20T00:52:22.344Z,3.07
2018-09-20T00:54:50.907Z,3.03
2018-09-20T00:57:19.606Z,3.17
2018-09-20T00:59:48.228Z,3.37
2018-09-20T01:02:16.788Z,3.37
2018-09-20T01:04:45.425Z,3.20
2018-09-20T01:07:13.964Z,3.17
2018-09-20T01:09:42.548Z,3.30
2018-09-20T01:12:11.246Z,3.67
2018-09-20T01:14:39.807Z,3.50
2018-09-20T01:17:08.442Z,3.33
2018-09-20T01:19:36.703Z,3.13
2018-09-20T01:22:05.839Z,2.90
2018-09-20T01:24:34.833Z,3.20
2018-09-20T01:27:03.918Z,3.10
2018-09-20T01:29:32.600Z,3.13
2018-09-20T01:32:01.147Z,3.00
2018-09-20T01:34:29.794Z,3.37
2018-09-20T01:36:58.379Z,3.50
2018-09-20T01:39:26.966Z,3.53
2018-09-20T01:41:55.549Z,3.43
2018-09-20T01:44:24.132Z,3.60
2018-09-20T01:46:52.739Z,3.37
2018-09-20T01:49:21.275Z,3.20
2018-09-20T01:51:49.888Z,2.90
2018-09-20T01:54:18.453Z,3.40
2018-09-20T01:56:46.650Z,2.90
2018-09-20T01:59:15.241Z,3.70
2018-09-20T02:01:43.488Z,3.27
2018-09-20T02:04:12.073Z,2.93
2018-09-20T02:06:40.323Z,3.00
2018-09-20T02:09:10.068Z,3.27
2018-09-20T02:11:38.821Z,3.23
2018-09-20T02:14:07.951Z,3.13
2018-09-20T02:16:36.703Z,3.60
2018-09-20T02:19:05.375Z,3.70
2018-09-20T02:21:33.973Z,3.20
2018-09-20T02:24:02.688Z,3.43
2018-09-20T02:26:31.335Z,3.27
2018-09-20T02:28:59.889Z,3.03
2018-09-20T02:31:28.480Z,3.87
2018-09-20T02:33:57.128Z,3.33
2018-09-20T02:36:25.698Z,3.47
2018-09-20T02:38:54.406Z,3.80
2018-09-20T02:41:23.054Z,3.20
2018-09-20T02:43:51.590Z,3.77
2018-09-20T02:46:20.250Z,3.20
2018-09-20T02:48:48.962Z,3.20
2018-09-20T02:51:17.555Z,3.07
2018-09-20T02:53:46.195Z,3.20
2018-09-20T02:56:14.728Z,3.47
2018-09-20T02:58:43.298Z,3.20
2018-09-20T03:01:11.846Z,3.17
2018-09-20T03:03:40.555Z,2.97
2018-09-20T03:06:09.112Z,3.20
2018-09-20T03:08:37.673Z,3.23
2018-09-20T03:11:06.291Z,3.40
2018-09-20T03:13:34.896Z,3.30
2018-09-20T03:16:03.540Z,3.60
2018-09-20T03:18:32.085Z,3.20
2018-09-20T03:21:00.784Z,3.50
2018-09-20T03:23:29.341Z,3.27
2018-09-20T03:25:57.905Z,3.20
2018-09-20T03:28:26.504Z,3.40
2018-09-20T03:30:55.190Z,3.30
2018-09-20T03:33:23.755Z,3.73
2018-09-20T03:35:52.327Z,3.27
2018-09-20T03:38:20.879Z,3.53
2018-09-20T03:40:49.418Z,3.30
2018-09-20T03:43:18.078Z,3.60
2018-09-20T03:45:46.648Z,3.50
2018-09-20T03:48:15.253Z,3.50
2018-09-20T03:50:43.827Z,3.17
2018-09-20T03:53:12.394Z,3.50
2018-09-20T03:55:41.001Z,3.20
2018-09-20T03:58:09.546Z,3.80
2018-09-20T04:00:38.111Z,3.50
2018-09-20T04:03:06.887Z,3.83
2018-09-20T04:05:35.499Z,3.67
2018-09-20T04:08:04.102Z,3.40
2018-09-20T04:10:32.752Z,3.23
2018-09-20T04:13:01.425Z,3.10
2018-09-20T04:15:30.087Z,3.50
2018-09-20T04:17:58.650Z,3.50
2018-09-20T04:20:27.231Z,3.20
2018-09-20T04:22:55.783Z,3.23
2018-09-20T04:25:24.321Z,3.40
2018-09-20T04:27:52.951Z,3.33
2018-09-20T04:30:21.568Z,3.47
2018-09-20T04:32:50.136Z,3.30
2018-09-20T04:35:18.731Z,3.40
2018-09-20T04:37:47.319Z,3.50
2018-09-20T04:40:15.951Z,3.73
2018-09-20T04:42:44.551Z,3.73
2018-09-20T04:45:13.133Z,3.30
2018-09-20T04:47:41.680Z,3.83
2018-09-20T04:50:10.265Z,3.10
2018-09-20T04:53:09.770Z,3.20
2018-09-20T04:55:38.306Z,3.97
2018-09-20T04:58:06.944Z,3.77
2018-09-20T05:00:35.534Z,4.13
2018-09-20T05:03:04.879Z,4.50
2018-09-20T05:05:33.647Z,4.30
2018-09-20T05:08:03.453Z,4.00
2018-09-20T05:10:32.005Z,4.40
2018-09-20T05:13:00.632Z,4.13
2018-09-20T05:15:29.442Z,3.90
2018-09-20T05:18:05.165Z,4.87
2018-09-20T05:20:33.971Z,4.40
2018-09-20T05:23:02.584Z,4.20
2018-09-20T05:25:31.468Z,7.90
2018-09-20T05:28:00.128Z,8.83
2018-09-20T05:30:28.776Z,10.07
2018-09-20T05:32:57.366Z,5.63
2018-09-20T05:35:26.003Z,6.03
2018-09-20T05:37:54.570Z,5.47
2018-09-20T05:40:23.190Z,5.57
2018-09-20T05:42:51.926Z,5.60
2018-09-20T05:45:20.505Z,5.40
2018-09-20T05:47:49.103Z,5.70
2018-09-20T05:50:17.660Z,5.30
2018-09-20T05:52:46.207Z,4.43
2018-09-20T05:55:14.796Z,5.30
2018-09-20T05:57:43.356Z,5.13
2018-09-20T06:00:11.949Z,4.70
2018-09-20T06:02:40.519Z,4.43
2018-09-20T06:05:09.152Z,4.77
2018-09-20T06:07:38.052Z,4.47
2018-09-20T06:10:06.765Z,4.27
2018-09-20T06:12:35.343Z,4.33
2018-09-20T06:15:04.029Z,4.20
2018-09-20T06:17:32.664Z,4.33
2018-09-20T06:20:01.260Z,4.90
2018-09-20T06:22:29.880Z,4.30
2018-09-20T06:24:58.507Z,5.13
2018-09-20T06:27:27.068Z,4.60
2018-09-20T06:29:55.650Z,4.47
2018-09-20T06:32:24.278Z,4.37
2018-09-20T06:34:52.877Z,5.53
2018-09-20T06:37:21.460Z,4.67
2018-09-20T06:39:50.011Z,4.50
2018-09-20T06:42:18.637Z,4.60
2018-09-20T06:44:47.205Z,4.27
2018-09-20T06:47:15.816Z,4.33
2018-09-20T06:49:44.355Z,4.63
2018-09-20T06:52:12.933Z,4.77
2018-09-20T06:54:41.539Z,4.10
2018-09-20T06:57:10.147Z,4.53
2018-09-20T06:59:38.774Z,4.37
2018-09-20T07:02:07.335Z,5.37
2018-09-20T07:04:35.927Z,5.43
2018-09-20T07:07:04.538Z,4.80
2018-09-20T07:09:33.128Z,4.93
2018-09-20T07:12:01.730Z,4.53
2018-09-20T07:14:30.271Z,4.57
2018-09-20T07:16:58.890Z,4.37
2018-09-20T07:19:27.499Z,4.50
2018-09-20T07:21:56.146Z,4.40
2018-09-20T07:24:24.786Z,4.93
2018-09-20T07:26:53.331Z,5.17
2018-09-20T07:29:21.959Z,4.90
2018-09-20T07:31:50.524Z,5.47
2018-09-20T07:34:19.190Z,4.90
2018-09-20T07:36:47.795Z,5.33
2018-09-20T07:39:16.365Z,4.70
2018-09-20T07:41:45.155Z,5.03
2018-09-20T07:44:13.974Z,4.90
2018-09-20T07:46:42.534Z,5.03
2018-09-20T07:49:11.190Z,5.30
2018-09-20T07:51:39.833Z,4.80
2018-09-20T07:54:08.440Z,4.47
2018-09-20T07:56:37.053Z,4.80
2018-09-20T07:59:05.632Z,4.33
2018-09-20T08:01:34.487Z,4.57
2018-09-20T08:04:03.061Z,4.50
2018-09-20T08:06:31.628Z,5.00
2018-09-20T08:09:00.213Z,4.47
2018-09-20T08:11:28.883Z,4.83
2018-09-20T08:13:57.562Z,5.03
2018-09-20T08:16:26.206Z,5.00
2018-09-20T08:18:54.799Z,4.77
2018-09-20T08:21:23.394Z,5.27
2018-09-20T08:23:51.921Z,5.03
2018-09-20T08:26:20.516Z,5.63
2018-09-20T08:28:49.120Z,4.97
2018-09-20T08:31:17.695Z,4.90
2018-09-20T08:33:46.301Z,5.30
2018-09-20T08:36:14.863Z,5.43
2018-09-20T08:38:43.453Z,4.87
2018-09-20T08:41:12.019Z,4.10
2018-09-20T08:43:40.628Z,4.63
2018-09-20T08:46:09.198Z,4.03
2018-09-20T08:48:37.773Z,4.90
2018-09-20T08:51:06.443Z,4.50
2018-09-20T08:53:35.000Z,4.67
2018-09-20T08:56:03.964Z,4.90
2018-09-20T08:58:33.431Z,5.23
2018-09-20T09:01:03.852Z,4.90
2018-09-20T09:03:32.812Z,4.83
2018-09-20T09:06:01.656Z,4.33
2018-09-20T09:08:30.219Z,4.33
2018-09-20T09:10:58.831Z,4.53
2018-09-20T09:13:27.371Z,4.90
2018-09-20T09:15:55.917Z,4.60
2018-09-20T09:18:24.488Z,4.50
2018-09-20T09:20:53.093Z,4.17
2018-09-20T09:23:21.735Z,4.73
2018-09-20T09:25:50.333Z,4.63
2018-09-20T09:28:18.931Z,4.70
2018-09-20T09:30:47.471Z,4.80
2018-09-20T09:33:15.724Z,4.57
2018-09-20T09:35:44.330Z,4.30
2018-09-20T09:38:12.894Z,4.90
2018-09-20T09:40:41.475Z,4.47
2018-09-20T09:43:10.051Z,4.40
2018-09-20T09:45:38.929Z,4.50
2018-09-20T09:48:07.752Z,3.93
2018-09-20T09:50:36.293Z,4.50
2018-09-20T09:53:05.422Z,4.33
2018-09-20T09:55:34.332Z,4.07
2018-09-20T09:58:02.910Z,4.33
2018-09-20T10:00:32.413Z,4.30
2018-09-20T10:03:00.988Z,4.40
2018-09-20T10:05:29.676Z,4.70
2018-09-20T10:07:58.252Z,4.30
2018-09-20T10:10:26.846Z,4.80
2018-09-20T10:12:55.431Z,4.67
2018-09-20T10:15:24.005Z,5.03
2018-09-20T10:17:52.652Z,4.40
2018-09-20T10:20:21.199Z,4.50
2018-09-20T10:22:49.754Z,4.80
2018-09-20T10:25:18.342Z,4.70
2018-09-20T10:27:46.911Z,4.50
2018-09-20T10:30:15.557Z,4.90
2018-09-20T10:32:44.208Z,4.50
2018-09-20T10:35:12.883Z,4.50
2018-09-20T10:37:41.431Z,4.60
2018-09-20T10:40:10.062Z,4.40
2018-09-20T10:42:38.639Z,4.13
2018-09-20T10:45:07.217Z,4.17
2018-09-20T10:47:35.747Z,4.50
2018-09-20T10:50:04.284Z,4.53
2018-09-20T10:52:32.865Z,4.30
2018-09-20T10:55:01.541Z,4.33
2018-09-20T10:57:30.090Z,4.17
2018-09-20T10:59:58.632Z,4.40
2018-09-20T11:02:27.259Z,4.23
2018-09-20T11:04:55.970Z,3.90
2018-09-20T11:07:24.594Z,4.20
2018-09-20T11:09:53.137Z,4.40
2018-09-20T11:12:21.370Z,4.03
2018-09-20T11:14:50.012Z,4.13
2018-09-20T11:17:18.699Z,3.53
2018-09-20T11:19:47.259Z,4.43
2018-09-20T11:22:15.824Z,4.13
2018-09-20T11:24:44.407Z,4.50
2018-09-20T11:27:13.054Z,4.17
2018-09-20T11:29:41.592Z,4.57
2018-09-20T11:32:10.163Z,3.87
2018-09-20T11:34:38.716Z,4.30
2018-09-20T11:37:07.304Z,3.87
2018-09-20T11:39:35.939Z,4.23
2018-09-20T11:42:04.504Z,4.23
2018-09-20T11:44:33.076Z,4.20
2018-09-20T11:47:01.627Z,3.97
2018-09-20T11:49:30.178Z,4.57
2018-09-20T11:51:58.807Z,4.40
2018-09-20T11:54:27.435Z,4.43
2018-09-20T11:56:56.088Z,4.17
2018-09-20T11:59:24.924Z,4.30
2018-09-20T12:01:54.390Z,4.50
2018-09-20T12:04:23.225Z,4.47
2018-09-20T12:06:51.884Z,4.87
2018-09-20T12:09:20.473Z,4.97
2018-09-20T12:11:49.142Z,4.83
2018-09-20T12:14:17.781Z,4.90
2018-09-20T12:16:46.391Z,5.13
2018-09-20T12:19:15.004Z,5.33
2018-09-20T12:21:43.671Z,5.10
2018-09-20T12:24:12.315Z,5.87
2018-09-20T12:26:40.901Z,5.10
2018-09-20T12:29:09.527Z,5.20
2018-09-20T12:31:38.155Z,5.40
2018-09-20T12:34:06.909Z,4.73
2018-09-20T12:36:35.463Z,5.07
2018-09-20T12:39:05.523Z,5.43
2018-09-20T12:41:34.162Z,4.53
2018-09-20T12:44:02.795Z,4.60
2018-09-20T12:46:31.376Z,4.83
2018-09-20T12:48:59.963Z,4.73
2018-09-20T12:51:28.576Z,4.90
2018-09-20T12:53:57.271Z,4.43
2018-09-20T12:56:26.238Z,4.90
2018-09-20T12:58:54.834Z,5.37
2018-09-20T13:01:23.393Z,5.00
2018-09-20T13:03:52.220Z,5.53
2018-09-20T13:06:20.876Z,4.77
2018-09-20T13:08:49.552Z,4.57
2018-09-20T13:11:18.497Z,5.60
2018-09-20T13:13:47.063Z,4.80
2018-09-20T13:16:15.636Z,4.67
2018-09-20T13:18:44.198Z,4.33
2018-09-20T13:21:12.798Z,4.30
2018-09-20T13:23:41.384Z,4.50
2018-09-20T13:26:10.252Z,4.60
2018-09-20T13:28:38.899Z,4.77
2018-09-20T13:31:07.506Z,4.77
2018-09-20T13:33:36.091Z,3.97
2018-09-20T13:36:04.678Z,4.97
2018-09-20T13:38:33.293Z,4.63
2018-09-20T13:41:01.901Z,4.73
2018-09-20T13:43:30.566Z,4.60
2018-09-20T13:45:59.135Z,4.10
2018-09-20T13:48:27.683Z,4.47
2018-09-20T13:50:56.272Z,4.90
2018-09-20T13:53:24.856Z,4.80
2018-09-20T13:55:53.480Z,4.87
2018-09-20T13:58:22.051Z,4.47
2018-09-20T14:00:50.715Z,5.07
2018-09-20T14:03:19.335Z,4.47
2018-09-20T14:05:47.949Z,4.90
2018-09-20T14:08:16.495Z,4.70
2018-09-20T14:10:45.068Z,4.30
2018-09-20T14:13:13.631Z,4.63
2018-09-20T14:15:42.241Z,4.83
2018-09-20T14:18:10.799Z,4.33
2018-09-20T14:20:39.402Z,4.83
2018-09-20T14:23:08.006Z,4.67
2018-09-20T14:25:36.740Z,4.70
2018-09-20T14:28:05.323Z,4.77
2018-09-20T14:30:33.921Z,4.90
2018-09-20T14:33:02.663Z,4.70
2018-09-20T14:35:31.247Z,4.60
2018-09-20T14:37:59.804Z,4.50
2018-09-20T14:40:28.421Z,4.60
2018-09-20T14:42:56.987Z,4.40
2018-09-20T14:45:25.540Z,4.60
2018-09-20T14:47:54.125Z,4.80
2018-09-20T14:50:22.739Z,4.67
2018-09-20T14:52:51.363Z,4.60
2018-09-20T14:55:19.915Z,4.53
2018-09-20T14:57:48.484Z,5.03
2018-09-20T15:00:17.151Z,4.67
2018-09-20T15:02:45.774Z,5.10
2018-09-20T15:05:14.387Z,5.00
2018-09-20T15:07:43.175Z,5.13
2018-09-20T15:10:11.752Z,5.03
2018-09-20T15:12:40.338Z,4.57
2018-09-20T15:15:08.943Z,4.97
2018-09-20T15:17:37.496Z,4.77
2018-09-20T15:20:06.065Z,4.40
2018-09-20T15:22:34.961Z,5.20
2018-09-20T15:25:03.721Z,5.00
2018-09-20T15:27:32.927Z,4.53
2018-09-20T15:30:01.550Z,5.10
2018-09-20T15:32:30.138Z,4.97
2018-09-20T15:34:58.632Z,5.20
2018-09-20T15:37:27.267Z,4.93
2018-09-20T15:39:55.904Z,5.00
2018-09-20T15:42:24.376Z,4.60
2018-09-20T15:44:52.901Z,5.03
2018-09-20T15:47:21.493Z,4.83
2018-09-20T15:49:50.023Z,5.40
2018-09-20T15:52:18.608Z,9.57
2018-09-20T15:54:47.160Z,11.93
2018-09-20T15:57:15.767Z,8.07
2018-09-20T15:59:44.331Z,5.50
2018-09-20T16:02:12.946Z,5.30
2018-09-20T16:04:41.499Z,5.17
2018-09-20T16:07:10.159Z,5.17
2018-09-20T16:09:38.735Z,5.30
2018-09-20T16:12:07.428Z,5.00
2018-09-20T16:14:36.200Z,4.80
2018-09-20T16:17:04.784Z,5.30
2018-09-20T16:19:33.347Z,4.83
2018-09-20T16:22:01.954Z,5.10
2018-09-20T16:24:30.583Z,5.33
2018-09-20T16:26:59.168Z,5.10
2018-09-20T16:29:49.047Z,5.10
2018-09-20T16:32:34.968Z,4.93
2018-09-20T16:35:48.588Z,4.90
2018-09-20T16:38:26.137Z,5.33
2018-09-20T16:40:56.690Z,4.73
2018-09-20T16:43:25.359Z,5.20
2018-09-20T16:45:53.920Z,5.10
2018-09-20T16:48:22.521Z,4.93
2018-09-20T16:50:51.088Z,4.63
2018-09-20T16:53:19.765Z,5.13
2018-09-20T16:55:48.223Z,4.77
2018-09-20T16:58:16.763Z,4.30
2018-09-20T17:00:45.385Z,4.57
2018-09-20T17:03:13.959Z,5.17
2018-09-20T17:05:42.965Z,5.00
2018-09-20T17:08:11.512Z,5.10
2018-09-20T17:10:40.062Z,4.80
2018-09-20T17:13:08.741Z,5.30
2018-09-20T17:15:37.329Z,4.90
2018-09-20T17:18:05.947Z,5.00
2018-09-20T17:20:34.556Z,4.80
2018-09-20T17:23:03.376Z,4.93
2018-09-20T17:25:32.081Z,4.40
2018-09-20T17:28:00.551Z,5.03
2018-09-20T17:30:29.098Z,5.13
2018-09-20T17:32:57.725Z,4.87
2018-09-20T17:35:26.744Z,5.30
2018-09-20T17:37:56.288Z,4.80
2018-09-20T17:40:26.526Z,5.07
2018-09-20T17:43:01.873Z,5.23
2018-09-20T17:45:30.536Z,5.37
2018-09-20T17:47:59.092Z,5.40
2018-09-20T17:50:27.755Z,5.50
2018-09-20T17:52:56.607Z,4.80
2018-09-20T17:55:25.849Z,4.67
2018-09-20T17:57:55.068Z,4.80
2018-09-20T18:00:24.472Z,4.83
2018-09-20T18:02:53.922Z,4.87
2018-09-20T18:05:23.127Z,5.37
2018-09-20T18:07:53.324Z,5.03
2018-09-20T18:10:21.896Z,5.00
2018-09-20T18:12:50.595Z,4.63
2018-09-20T18:15:19.158Z,5.20
2018-09-20T18:17:47.961Z,5.37
2018-09-20T18:20:16.547Z,5.00
2018-09-20T18:22:45.067Z,5.27
2018-09-20T18:25:14.057Z,4.97
2018-09-20T18:27:42.671Z,5.07
2018-09-20T18:30:11.288Z,5.10
2018-09-20T18:32:39.846Z,5.07
2018-09-20T18:35:08.451Z,5.13
2018-09-20T18:37:38.327Z,5.07
2018-09-20T18:40:07.225Z,5.20
2018-09-20T18:42:36.100Z,5.40
2018-09-20T18:45:04.834Z,4.80
2018-09-20T18:47:33.408Z,5.53
2018-09-20T18:50:02.175Z,5.00
2018-09-20T18:52:30.796Z,5.33
2018-09-20T18:54:59.398Z,5.40
2018-09-20T18:57:28.276Z,5.30
2018-09-20T18:59:57.010Z,5.50
2018-09-20T19:02:25.639Z,5.63
2018-09-20T19:04:54.261Z,5.50
2018-09-20T19:07:29.284Z,5.43
2018-09-20T19:09:57.924Z,5.30
2018-09-20T19:12:26.579Z,5.30
2018-09-20T19:14:55.148Z,5.27
2018-09-20T19:17:24.710Z,5.63
2018-09-20T19:19:53.320Z,5.83
2018-09-20T19:22:21.904Z,5.43
2018-09-20T19:24:50.505Z,5.77
2018-09-20T19:27:19.152Z,5.43
2018-09-20T19:29:47.729Z,5.00
2018-09-20T19:32:16.351Z,5.73
2018-09-20T19:34:44.991Z,5.17
2018-09-20T19:37:13.555Z,5.67
2018-09-20T19:39:42.132Z,5.93
2018-09-20T19:42:10.732Z,5.33
2018-09-20T19:44:39.395Z,5.83
2018-09-20T19:47:07.940Z,5.40
2018-09-20T19:49:36.534Z,5.80
2018-09-20T19:52:09.089Z,5.87
2018-09-20T19:54:37.670Z,5.30
2018-09-20T19:57:06.300Z,5.43
2018-09-20T19:59:34.879Z,5.53
2018-09-20T20:02:03.471Z,5.27
2018-09-20T20:04:32.094Z,5.10
2018-09-20T20:07:00.750Z,6.10
2018-09-20T20:09:29.328Z,5.57
2018-09-20T20:15:31.907Z,5.57
2018-09-20T20:18:00.475Z,5.67
2018-09-20T20:20:29.067Z,5.60
2018-09-20T20:22:57.633Z,5.80
2018-09-20T20:25:26.210Z,5.40
2018-09-20T20:27:54.791Z,5.20
2018-09-20T20:30:23.402Z,5.63
2018-09-20T20:32:52.036Z,6.00
2018-09-20T20:35:20.611Z,5.63
2018-09-20T20:37:49.180Z,5.77
2018-09-20T20:40:17.787Z,5.73
2018-09-20T20:42:46.376Z,5.70
2018-09-20T20:45:15.000Z,5.50
2018-09-20T20:47:47.678Z,5.70
2018-09-20T20:50:16.279Z,5.40
2018-09-20T20:52:44.831Z,5.27
2018-09-20T20:55:14.323Z,5.63
2018-09-20T20:57:42.855Z,5.80
2018-09-20T21:00:11.590Z,5.30
2018-09-20T21:02:40.130Z,5.20
2018-09-20T21:05:08.684Z,5.27
2018-09-20T21:07:38.160Z,5.50
2018-09-20T21:10:06.720Z,5.47
2018-09-20T21:12:35.495Z,5.30
2018-09-20T21:15:04.119Z,5.27
2018-09-20T21:17:33.585Z,5.70
2018-09-20T21:20:02.200Z,5.90
2018-09-20T21:22:31.194Z,6.47
2018-09-20T21:24:59.788Z,5.27
2018-09-20T21:27:28.952Z,5.17
2018-09-20T21:29:57.536Z,5.23
2018-09-20T21:32:26.173Z,5.57
2018-09-20T21:34:55.023Z,5.50
2018-09-20T21:37:24.541Z,5.43
2018-09-20T21:39:53.208Z,5.43
2018-09-20T21:42:21.526Z,5.27
2018-09-20T21:44:50.087Z,5.60
2018-09-20T21:47:18.708Z,5.73
2018-09-20T21:49:47.297Z,5.47
2018-09-20T21:52:15.920Z,5.87
2018-09-20T21:54:44.516Z,5.40
2018-09-20T21:57:13.089Z,5.37
2018-09-20T21:59:41.683Z,5.13
2018-09-20T22:02:10.258Z,5.67
2018-09-20T22:04:38.947Z,5.40
2018-09-20T22:07:07.536Z,6.00
2018-09-20T22:09:36.151Z,5.33
2018-09-20T22:12:04.701Z,4.90
2018-09-20T22:14:33.272Z,5.50
2018-09-20T22:17:01.939Z,4.97
2018-09-20T22:19:30.555Z,5.87
2018-09-20T22:21:59.119Z,5.53
2018-09-20T22:24:28.450Z,5.30
2018-09-20T22:26:57.060Z,4.83
2018-09-20T22:29:25.640Z,5.50
2018-09-20T22:31:54.309Z,5.60
2018-09-20T22:34:22.935Z,4.90
2018-09-20T22:36:51.544Z,5.80
2018-09-20T22:39:20.106Z,5.37
2018-09-20T22:41:48.758Z,5.20
2018-09-20T22:44:17.318Z,5.57
2018-09-20T22:46:45.897Z,5.27
2018-09-20T22:49:14.477Z,5.57
2018-09-20T22:51:43.028Z,5.50
2018-09-20T22:54:11.376Z,5.60
2018-09-20T22:56:39.979Z,5.20
2018-09-20T22:59:08.567Z,5.47
2018-09-20T23:01:36.817Z,5.70
2018-09-20T23:04:05.403Z,5.73
2018-09-20T23:06:33.983Z,5.43
2018-09-20T23:09:14.340Z,5.53
2018-09-20T23:11:42.967Z,5.13
2018-09-20T23:14:11.551Z,6.27
2018-09-20T23:16:40.144Z,5.50
2018-09-20T23:19:08.703Z,5.83
2018-09-20T23:21:37.263Z,5.37
2018-09-20T23:24:05.845Z,5.50
2018-09-20T23:26:34.406Z,5.70
2018-09-20T23:29:02.665Z,6.30
2018-09-20T23:31:31.275Z,5.47
2018-09-20T23:33:59.811Z,5.90
2018-09-20T23:36:28.416Z,6.13
2018-09-20T23:38:56.996Z,5.53
2018-09-20T23:41:25.582Z,5.47
2018-09-20T23:43:54.172Z,5.43
2018-09-20T23:46:22.730Z,5.40
2018-09-20T23:48:51.307Z,5.60
2018-09-20T23:51:19.899Z,5.40
2018-09-20T23:53:48.167Z,5.27
2018-09-20T23:56:16.732Z,5.53
2018-09-20T23:58:45.272Z,5.80
